Terminal Aerodrome Forecast
Issued by NWS

Home | Current Version | Previous Version | Text Only | Print | Product List | Glossary On
Versions: 1 2 3 4 5 6 7 8 9 10 11 12 13
000
FTPA31 PHFO 241720
TAFHJR
TAF
PHJR 241720Z 2418/2518 04005KT P6SM BKN250
     FM242000 08009G14KT P6SM SCT045 BKN250
      TEMPO 2420/2424 VRB06G12KT
     FM250500 05005KT P6SM FEW040 BKN250=

USA.gov is the U.S. government's official web portal to all federal, state and local government web resources and services.